Latest Weather Observations for Friendly Beaches

IDT60801

Issued at 5:51 pm EST Saturday 18 September 2021 (issued every 10 minutes, with the page automatically refreshed every 10 minutes)

About weather observations | Map of weather stations | Latest weather observations for TAS | Other Formats
Station Details ID: 092114 Name: FRIENDLY BEACHES Lat: -42.00 Lon: 148.28 Height: 55.0 m
Data from the previous 72 hours. | See also: Recent months at Friendly Beaches
Date/Time
EST
Temp
°C
App
Temp
°C
Dew
Point
°C
Rel
Hum
%
Delta-T
°C
Wind Press
QNH
hPa
Press
MSL
hPa
Rain since
9am
mm
Dir  Spd
km/h
Gust
km/h
Spd
kts
Gust
kts
18/05:30pm 10.9 - - - - WNW 19 35 10 19 1003.0 1003.0 0.0
18/05:00pm 11.8 - - - - W 22 46 12 25 1002.8 1002.8 0.0
18/04:30pm 12.8 - - - - WNW 19 35 10 19 1002.2 1002.2 0.0
18/04:00pm 12.9 - - - - WNW 24 50 13 27 1000.9 1001.0 0.0
18/03:30pm 12.4 - - - - WNW 17 35 9 19 1001.4 1001.4 0.0
18/03:00pm 14.3 - - - - WNW 19 39 10 21 1001.8 1001.8 0.0
18/02:33pm 14.5 - - - - WNW 28 50 15 27 1001.1 1001.2 0.0
18/02:30pm 14.7 - - - - NW 26 46 14 25 1001.0 1001.1 0.0
18/02:16pm 15.1 - - - - WNW 28 54 15 29 1000.6 1000.7 0.0
18/02:00pm 16.2 - - - - WNW 19 44 10 24 1000.4 1000.5 0.0
18/01:33pm 15.5 - - - - NW 28 50 15 27 1000.4 1000.5 0.0
18/01:30pm 16.3 - - - - WNW 24 43 13 23 1000.4 1000.5 0.0
18/01:00pm 16.3 - - - - WNW 26 54 14 29 1000.2 1000.3 0.0
18/12:30pm 16.7 - - - - NW 30 50 16 27 1000.4 1000.5 0.0
18/12:27pm 16.4 - - - - NW 28 50 15 27 1000.4 1000.5 0.0
18/12:00pm 16.0 - - - - WNW 22 39 12 21 1000.6 1000.7 0.0
18/11:43am 16.0 - - - - WNW 28 57 15 31 1000.6 1000.7 0.0
18/11:30am 15.8 - - - - NW 26 46 14 25 1000.5 1000.6 0.0
18/11:00am 15.2 - - - - WNW 19 39 10 21 1000.8 1000.9 0.0
18/10:44am 15.3 - - - - WNW 28 57 15 31 1000.6 1000.7 0.0
18/10:30am 15.6 - - - - NW 24 44 13 24 1000.7 1000.8 0.0
18/10:00am 15.0 - - - - NW 28 52 15 28 1000.8 1000.9 0.0
18/09:42am 14.8 - - - - NW 30 52 16 28 1000.7 1000.8 0.0
18/09:30am 14.7 - - - - WNW 22 39 12 21 1000.9 1001.0 0.0
18/09:14am 13.7 - - - - WNW 28 56 15 30 1001.0 1001.1 0.0
18/09:00am 14.4 - - - - WNW 22 39 12 21 1001.1 1001.2 0.4
18/08:40am 13.9 - - - - WNW 28 63 15 34 1000.4 1000.5 0.4
18/08:30am 13.9 - - - - WNW 19 33 10 18 1000.4 1000.5 0.4
18/08:00am 12.9 - - - - NW 20 48 11 26 1000.2 1000.3 0.4
18/07:30am 10.4 - - - - NNW 9 20 5 11 1000.7 1000.8 0.4
18/07:00am 12.1 - - - - NNE 9 17 5 9 1000.4 1000.5 0.0
18/06:30am 11.2 - - - - N 7 13 4 7 1000.5 1000.6 0.0
18/06:00am 12.2 - - - - NNW 13 22 7 12 1000.1 1000.2 0.0
18/05:30am 12.3 - - - - NW 19 35 10 19 1000.2 1000.3 0.0
18/05:00am 12.8 - - - - NW 20 39 11 21 1000.4 1000.5 0.0
18/04:30am 13.5 - - - - NW 22 46 12 25 1000.1 1000.2 0.0
18/04:29am 13.5 - - - - NW 22 46 12 25 1000.2 1000.3 0.0
18/04:00am 12.9 - - - - NW 9 20 5 11 1000.0 1000.1 0.0
18/03:30am 13.0 - - - - N 13 20 7 11 1000.3 1000.4 0.0
18/03:00am 13.3 - - - - N 11 22 6 12 1001.1 1001.2 0.0
18/02:30am 13.1 - - - - NE 11 20 6 11 1001.0 1001.1 0.0
18/02:00am 12.6 - - - - NE 11 22 6 12 1002.2 1002.2 0.0
18/01:30am 13.0 - - - - N 17 32 9 17 1002.9 1002.9 0.0
18/01:00am 12.2 - - - - NNE 7 17 4 9 1003.5 1003.5 0.0
18/12:30am 12.3 - - - - NNE 11 20 6 11 1004.4 1004.4 0.0
18/12:00am 12.2 - - - - NNE 17 32 9 17 1005.4 1005.4 0.0
 
Date/Time
EST
Temp
°C
App
Temp
°C
Dew
Point
°C
Rel
Hum
%
Delta-T
°C
Wind Press
QNH
hPa
Press
MSL
hPa
Rain since
9am
mm
Dir  Spd
km/h
Gust
km/h
Spd
kts
Gust
kts
17/11:30pm 12.5 - - - - N 13 20 7 11 1005.5 1005.5 0.0
17/11:00pm 12.4 - - - - N 19 32 10 17 1006.2 1006.2 0.0
17/10:30pm 12.6 - - - - N 22 39 12 21 1006.8 1006.8 0.0
17/10:00pm 12.6 - - - - N 22 44 12 24 1007.7 1007.7 0.0
17/09:30pm 12.6 - - - - N 20 30 11 16 1007.7 1007.7 0.0
17/09:00pm 12.4 - - - - N 22 37 12 20 1007.9 1007.9 0.0
17/08:30pm 12.4 - - - - N 17 30 9 16 1008.5 1008.5 0.0
17/08:00pm 12.2 - - - - N 17 30 9 16 1008.4 1008.4 0.0
17/07:30pm 12.2 - - - - NNE 17 28 9 15 1008.8 1008.8 0.0
17/07:00pm 12.2 - - - - NNE 20 30 11 16 1009.4 1009.4 0.0
17/06:30pm 12.2 - - - - NNE 19 30 10 16 1010.2 1010.2 0.0
17/06:00pm 12.1 - - - - N 17 28 9 15 1010.8 1010.8 0.0
17/05:30pm 12.1 - - - - N 19 30 10 16 1011.1 1011.1 0.0
17/05:00pm 12.2 - - - - NNE 20 32 11 17 1011.1 1011.1 0.0
17/04:30pm 13.1 - - - - NNE 19 30 10 16 1011.2 1011.2 0.0
17/04:00pm 12.4 - - - - N 19 32 10 17 1011.4 1011.4 0.0
17/03:30pm 12.9 - - - - NNE 19 28 10 15 1011.7 1011.7 0.0
17/03:00pm 12.5 - - - - N 20 37 11 20 1012.2 1012.2 0.0
17/02:30pm 13.0 - - - - NNE 22 35 12 19 1012.6 1012.6 0.0
17/02:00pm 13.5 - - - - NNE 22 33 12 18 1012.9 1012.9 0.0
17/01:30pm 12.9 - - - - NNE 22 35 12 19 1013.4 1013.4 0.0
17/01:00pm 13.6 - - - - NNE 24 41 13 22 1014.0 1014.0 0.0
17/12:30pm 12.9 - - - - NNE 22 37 12 20 1015.0 1015.0 0.0
17/12:00pm 14.0 - - - - NNE 22 33 12 18 1015.2 1015.3 0.0
17/11:30am 14.0 - - - - NNE 19 30 10 16 1015.3 1015.4 0.0
17/11:00am 15.2 - - - - NNE 22 33 12 18 1015.9 1016.0 0.0
17/10:30am 14.5 - - - - NNE 20 33 11 18 1016.3 1016.4 0.0
17/10:00am 14.3 - - - - NE 15 26 8 14 1016.9 1017.0 0.0
17/09:30am 13.0 - - - - NE 15 26 8 14 1017.4 1017.5 0.0
17/09:00am 12.7 - - - - NE 11 20 6 11 1018.0 1018.1 0.0
17/08:30am 11.7 - - - - NE 9 13 5 7 1018.3 1018.4 0.0
17/08:00am 10.8 - - - - NE 9 15 5 8 1018.6 1018.7 0.0
17/07:30am 8.9 - - - - NE 6 7 3 4 1018.8 1018.9 0.0
17/07:00am 6.5 - - - - NNE 2 4 1 2 1019.0 1019.1 0.0
17/06:30am 5.2 - - - - NNW 6 7 3 4 1019.0 1019.1 0.0
17/06:00am 5.7 - - - - NW 4 4 2 2 1019.0 1019.1 0.0
17/05:30am 5.7 - - - - WNW 4 6 2 3 1019.0 1019.1 0.0
17/05:00am 5.9 - - - - CALM 0 0 0 0 1019.2 1019.3 0.0
17/04:30am 6.4 - - - - WNW 2 4 1 2 1019.1 1019.2 0.0
17/04:00am 6.8 - - - - NW 6 6 3 3 1019.3 1019.4 0.0
17/03:30am 7.0 - - - - WNW 6 7 3 4 1019.6 1019.7 0.0
17/03:00am 7.4 - - - - WNW 6 6 3 3 1019.8 1019.9 0.0
17/02:30am 6.9 - - - - WNW 6 6 3 3 1020.1 1020.1 0.0
17/02:00am 7.3 - - - - WNW 6 6 3 3 1020.4 1020.4 0.0
17/01:30am 7.5 - - - - W 7 11 4 6 1020.7 1020.7 0.0
17/01:00am 7.6 - - - - W 7 9 4 5 1021.0 1021.0 0.0
17/12:30am 8.2 - - - - WNW 9 13 5 7 1021.2 1021.2 0.0
17/12:00am 7.8 - - - - WNW 7 9 4 5 1021.4 1021.4 0.0
 
Date/Time
EST
Temp
°C
App
Temp
°C
Dew
Point
°C
Rel
Hum
%
Delta-T
°C
Wind Press
QNH
hPa
Press
MSL
hPa
Rain since
9am
mm
Dir  Spd
km/h
Gust
km/h
Spd
kts
Gust
kts
16/11:30pm 7.6 - - - - WNW 9 13 5 7 1021.8 1021.8 0.0
16/11:00pm 7.5 - - - - WNW 9 11 5 6 1022.0 1022.0 0.0
16/10:30pm 7.8 - - - - CALM 0 0 0 0 1022.0 1022.0 0.0
16/10:00pm 8.9 - - - - CALM 0 0 0 0 1022.2 1022.2 0.0
16/09:30pm 9.1 - - - - CALM 0 0 0 0 1022.3 1022.3 0.0
16/09:00pm 9.3 - - - - CALM 0 0 0 0 1022.5 1022.5 0.0
16/08:30pm 8.4 - - - - N 6 6 3 3 1022.4 1022.4 0.0
16/08:00pm 8.1 - - - - CALM 0 0 0 0 1022.2 1022.2 0.0
16/07:30pm 7.4 - - - - NNE 6 6 3 3 1022.2 1022.2 0.0
16/07:00pm 8.1 - - - - N 6 7 3 4 1022.2 1022.2 0.0
16/06:30pm 8.3 - - - - N 6 7 3 4 1022.1 1022.1 0.0
16/06:00pm 9.1 - - - - N 7 11 4 6 1022.1 1022.1 0.0
16/05:30pm 10.1 - - - - N 7 11 4 6 1022.1 1022.1 0.0
16/05:00pm 10.4 - - - - NNE 6 11 3 6 1022.2 1022.2 0.0
16/04:30pm 11.3 - - - - NNE 9 17 5 9 1022.2 1022.2 0.0
16/04:00pm 12.0 - - - - NNE 9 15 5 8 1022.3 1022.3 0.0
16/03:30pm 13.4 - - - - NE 9 17 5 9 1022.4 1022.4 0.0
16/03:00pm 12.8 - - - - NE 9 15 5 8 1022.8 1022.8 0.0
16/02:30pm 14.7 - - - - NE 11 17 6 9 1022.9 1022.9 0.0
16/02:00pm 12.1 - - - - NNE 9 15 5 8 1022.9 1022.9 0.0
16/01:30pm 11.9 - - - - NE 9 17 5 9 1023.0 1023.0 0.0
16/01:00pm 12.7 - - - - NE 9 17 5 9 1023.3 1023.3 0.0
16/12:30pm 13.4 - - - - NE 9 17 5 9 1023.6 1023.6 0.0
16/12:00pm 13.5 - - - - NE 13 20 7 11 1024.0 1024.0 0.0
16/11:30am 15.0 - - - - NE 13 20 7 11 1024.3 1024.3 0.0
16/11:00am 14.3 - - - - NE 11 19 6 10 1024.7 1024.7 0.0
16/10:30am 13.9 - - - - ENE 11 15 6 8 1024.9 1024.9 0.0
16/10:00am 12.1 - - - - W 4 7 2 4 1025.2 1025.2 0.0
16/09:30am 11.4 - - - - WSW 6 11 3 6 1025.6 1025.6 0.0
16/09:00am 10.8 - - - - WNW 7 9 4 5 1025.8 1025.8 0.0
16/08:30am 8.7 - - - - W 7 9 4 5 1025.9 1025.9 0.0
16/08:00am 7.3 - - - - WNW 9 13 5 7 1025.9 1025.9 0.0
16/07:30am 6.0 - - - - WNW 9 13 5 7 1025.9 1025.9 0.0
16/07:00am 3.2 - - - - WNW 11 13 6 7 1025.8 1025.8 0.0
16/06:30am 3.1 - - - - WNW 9 11 5 6 1025.5 1025.5 0.0
16/06:00am 4.5 - - - - WNW 9 9 5 5 1025.4 1025.4 0.0
16/05:30am 3.9 - - - - WNW 11 13 6 7 1025.4 1025.4 0.0
16/05:00am 4.0 - - - - WNW 11 13 6 7 1025.5 1025.5 0.0
16/04:30am 5.0 - - - - WNW 9 11 5 6 1025.3 1025.3 0.0
16/04:00am 4.8 - - - - WNW 9 9 5 5 1025.3 1025.3 0.0
16/03:30am 4.0 - - - - WNW 9 11 5 6 1025.5 1025.5 0.0
16/03:00am 5.0 - - - - WNW 6 11 3 6 1025.4 1025.4 0.0
16/02:30am 6.3 - - - - WNW 6 6 3 3 1025.5 1025.5 0.0
16/02:00am 6.2 - - - - WNW 7 7 4 4 1025.9 1025.9 0.0
16/01:30am 6.5 - - - - WNW 7 7 4 4 1026.2 1026.2 0.0
16/01:00am 6.0 - - - - WNW 9 11 5 6 1026.4 1026.4 0.0
16/12:30am 5.8 - - - - WNW 9 11 5 6 1026.3 1026.3 0.0
16/12:00am 6.0 - - - - WNW 7 7 4 4 1026.2 1026.2 0.0
 
Date/Time
EST
Temp
°C
App
Temp
°C
Dew
Point
°C
Rel
Hum
%
Delta-T
°C
Wind Press
QNH
hPa
Press
MSL
hPa
Rain since
9am
mm
Dir  Spd
km/h
Gust
km/h
Spd
kts
Gust
kts
15/11:30pm 6.6 - - - - WNW 7 9 4 5 1026.4 1026.4 0.0
15/11:00pm 7.2 - - - - WNW 4 4 2 2 1026.5 1026.5 0.0
15/10:30pm 7.7 - - - - NW 6 7 3 4 1026.6 1026.6 0.0
15/10:00pm 7.5 - - - - WNW 7 7 4 4 1026.8 1026.8 0.0
15/09:30pm 7.2 - - - - CALM 0 2 0 1 1026.7 1026.7 0.0
15/09:00pm 8.1 - - - - CALM 0 4 0 2 1026.6 1026.6 0.0
15/08:30pm 8.4 - - - - E 6 7 3 4 1026.5 1026.5 0.0
15/08:00pm 8.3 - - - - CALM 0 0 0 0 1026.5 1026.5 0.0
15/07:30pm 8.3 - - - - E 4 6 2 3 1026.5 1026.5 0.0
15/07:00pm 8.6 - - - - E 6 7 3 4 1026.3 1026.3 0.0
15/06:30pm 9.1 - - - - E 6 9 3 5 1026.2 1026.2 0.0
15/06:00pm 9.7 - - - - E 6 9 3 5 1026.1 1026.1 0.0

Other formats

Comma delimited format used in spreadsheet applications
http://www.bom.gov.au/fwo/IDT60801/IDT60801.94987.axf

JavaScript Object Notation format (JSON) in row-major order
http://www.bom.gov.au/fwo/IDT60801/IDT60801.94987.json

Data quality

Most of these data are generated automatically and are frequently updated. Quality checks on data are not normally performed. It is possible for incorrect values to appear. Refer to information at About Latest Weather Observations and please check the disclaimer before using these data.